sensor_id;sensor_type;location;lat;lon;timestamp;pressure;altitude;pressure_sealevel;temperature;humidity
73338;BME280;61575;49.908;35.556;2023-03-03T00:02:39;99238.72;;;0.77;83.85
73338;BME280;61575;49.908;35.556;2023-03-03T00:05:42;99231.03;;;0.74;83.95
73338;BME280;61575;49.908;35.556;2023-03-03T00:08:44;99230.31;;;0.72;84.09
73338;BME280;61575;49.908;35.556;2023-03-03T00:11:49;99220.81;;;0.69;83.84
73338;BME280;61575;49.908;35.556;2023-03-03T00:14:54;99224.63;;;0.65;84.17
73338;BME280;61575;49.908;35.556;2023-03-03T00:17:57;99223.06;;;0.63;84.36
73338;BME280;61575;49.908;35.556;2023-03-03T00:21:01;99224.88;;;0.62;84.21
73338;BME280;61575;49.908;35.556;2023-03-03T00:27:30;99212.84;;;0.58;84.44
73338;BME280;61575;49.908;35.556;2023-03-03T00:30:33;99212.34;;;0.53;84.42
73338;BME280;61575;49.908;35.556;2023-03-03T00:33:41;99214.97;;;0.53;84.30
73338;BME280;61575;49.908;35.556;2023-03-03T00:36:45;99203.91;;;0.48;84.63
73338;BME280;61575;49.908;35.556;2023-03-03T00:39:53;99205.94;;;0.44;84.34
73338;BME280;61575;49.908;35.556;2023-03-03T00:43:01;99202.78;;;0.39;84.64
73338;BME280;61575;49.908;35.556;2023-03-03T00:46:16;99194.97;;;0.38;84.33
73338;BME280;61575;49.908;35.556;2023-03-03T00:49:25;99193.63;;;0.32;84.42
73338;BME280;61575;49.908;35.556;2023-03-03T00:52:27;99185.22;;;0.27;84.70
73338;BME280;61575;49.908;35.556;2023-03-03T00:55:30;99184.47;;;0.25;84.99
73338;BME280;61575;49.908;35.556;2023-03-03T00:58:32;99187.47;;;0.20;84.70
73338;BME280;61575;49.908;35.556;2023-03-03T01:01:36;99194.03;;;0.15;85.35
73338;BME280;61575;49.908;35.556;2023-03-03T01:04:42;99192.34;;;0.14;84.83
73338;BME280;61575;49.908;35.556;2023-03-03T01:07:45;99196.16;;;0.10;84.58
73338;BME280;61575;49.908;35.556;2023-03-03T01:10:49;99189.44;;;0.06;84.66
73338;BME280;61575;49.908;35.556;2023-03-03T01:13:52;99189.44;;;0.06;84.94
73338;BME280;61575;49.908;35.556;2023-03-03T01:17:01;99192.19;;;0.04;84.98
73338;BME280;61575;49.908;35.556;2023-03-03T01:20:03;99182.78;;;0.00;84.72
73338;BME280;61575;49.908;35.556;2023-03-03T01:23:05;99184.69;;;-0.02;84.96
73338;BME280;61575;49.908;35.556;2023-03-03T01:26:07;99183.97;;;-0.04;84.75
73338;BME280;61575;49.908;35.556;2023-03-03T01:29:09;99185.16;;;-0.08;84.53
73338;BME280;61575;49.908;35.556;2023-03-03T01:32:11;99186.31;;;-0.12;84.34
73338;BME280;61575;49.908;35.556;2023-03-03T01:35:13;99177.06;;;-0.18;84.52
73338;BME280;61575;49.908;35.556;2023-03-03T01:38:15;99182.78;;;-0.24;84.32
73338;BME280;61575;49.908;35.556;2023-03-03T01:41:20;99170.00;;;-0.30;84.81
73338;BME280;61575;49.908;35.556;2023-03-03T01:44:22;99161.38;;;-0.32;84.84
73338;BME280;61575;49.908;35.556;2023-03-03T01:47:30;99165.19;;;-0.36;84.60
73338;BME280;61575;49.908;35.556;2023-03-03T01:54:05;99166.69;;;-0.45;84.26
73338;BME280;61575;49.908;35.556;2023-03-03T01:57:20;99165.31;;;-0.50;84.35
73338;BME280;61575;49.908;35.556;2023-03-03T02:00:23;99167.44;;;-0.55;84.59
73338;BME280;61575;49.908;35.556;2023-03-03T02:03:26;99167.56;;;-0.57;84.46
73338;BME280;61575;49.908;35.556;2023-03-03T02:06:37;99168.59;;;-0.59;84.44
73338;BME280;61575;49.908;35.556;2023-03-03T02:12:54;99162.94;;;-0.66;84.36
73338;BME280;61575;49.908;35.556;2023-03-03T02:15:56;99163.13;;;-0.69;84.36
73338;BME280;61575;49.908;35.556;2023-03-03T02:19:00;99158.06;;;-0.72;84.63
73338;BME280;61575;49.908;35.556;2023-03-03T02:22:02;99154.91;;;-0.77;84.56
73338;BME280;61575;49.908;35.556;2023-03-03T02:25:07;99152.50;;;-0.80;84.79
73338;BME280;61575;49.908;35.556;2023-03-03T02:28:13;99149.03;;;-0.81;84.70
73338;BME280;61575;49.908;35.556;2023-03-03T02:31:17;99150.91;;;-0.83;84.94
73338;BME280;61575;49.908;35.556;2023-03-03T02:34:19;99152.94;;;-0.86;84.76
73338;BME280;61575;49.908;35.556;2023-03-03T02:37:24;99153.88;;;-0.87;85.07
73338;BME280;61575;49.908;35.556;2023-03-03T02:40:30;99147.75;;;-0.88;84.99
73338;BME280;61575;49.908;35.556;2023-03-03T02:43:58;99133.84;;;-0.90;84.82
73338;BME280;61575;49.908;35.556;2023-03-03T02:47:00;99127.94;;;-0.93;84.79
73338;BME280;61575;49.908;35.556;2023-03-03T02:50:04;99129.63;;;-0.92;85.15
73338;BME280;61575;49.908;35.556;2023-03-03T02:53:06;99121.09;;;-0.96;85.21
73338;BME280;61575;49.908;35.556;2023-03-03T02:56:08;99118.78;;;-1.00;84.95
73338;BME280;61575;49.908;35.556;2023-03-03T02:59:10;99114.78;;;-1.06;84.71
73338;BME280;61575;49.908;35.556;2023-03-03T03:02:17;99113.94;;;-1.06;84.94
73338;BME280;61575;49.908;35.556;2023-03-03T03:05:20;99116.69;;;-1.08;85.23
73338;BME280;61575;49.908;35.556;2023-03-03T03:08:22;99115.00;;;-1.09;84.93
73338;BME280;61575;49.908;35.556;2023-03-03T03:11:25;99113.44;;;-1.12;85.13
73338;BME280;61575;49.908;35.556;2023-03-03T03:14:27;99111.75;;;-1.13;85.50
73338;BME280;61575;49.908;35.556;2023-03-03T03:17:30;99112.19;;;-1.19;85.55
73338;BME280;61575;49.908;35.556;2023-03-03T03:20:37;99110.41;;;-1.18;85.21
73338;BME280;61575;49.908;35.556;2023-03-03T03:23:42;99119.47;;;-1.22;84.81
73338;BME280;61575;49.908;35.556;2023-03-03T03:26:45;99113.56;;;-1.26;84.71
73338;BME280;61575;49.908;35.556;2023-03-03T03:29:48;99112.72;;;-1.26;84.89
73338;BME280;61575;49.908;35.556;2023-03-03T03:32:50;99116.19;;;-1.26;84.91
73338;BME280;61575;49.908;35.556;2023-03-03T03:35:53;99124.31;;;-1.29;85.12
73338;BME280;61575;49.908;35.556;2023-03-03T03:38:57;99111.03;;;-1.27;85.56
73338;BME280;61575;49.908;35.556;2023-03-03T03:41:59;99110.28;;;-1.29;85.58
73338;BME280;61575;49.908;35.556;2023-03-03T03:45:01;99107.88;;;-1.32;85.43
73338;BME280;61575;49.908;35.556;2023-03-03T03:48:03;99101.97;;;-1.36;85.02
73338;BME280;61575;49.908;35.556;2023-03-03T03:51:06;99087.22;;;-1.38;85.16
73338;BME280;61575;49.908;35.556;2023-03-03T03:54:11;99100.28;;;-1.37;85.30
73338;BME280;61575;49.908;35.556;2023-03-03T03:57:13;99092.69;;;-1.41;85.20
73338;BME280;61575;49.908;35.556;2023-03-03T04:00:17;99096.38;;;-1.44;84.92
73338;BME280;61575;49.908;35.556;2023-03-03T04:03:29;99088.06;;;-1.51;84.47
73338;BME280;61575;49.908;35.556;2023-03-03T04:06:31;99095.22;;;-1.53;84.84
73338;BME280;61575;49.908;35.556;2023-03-03T04:09:35;99094.59;;;-1.56;84.64
73338;BME280;61575;49.908;35.556;2023-03-03T04:12:37;99091.53;;;-1.63;84.66
73338;BME280;61575;49.908;35.556;2023-03-03T04:15:44;99087.19;;;-1.64;84.79
73338;BME280;61575;49.908;35.556;2023-03-03T04:18:46;99084.88;;;-1.68;84.55
73338;BME280;61575;49.908;35.556;2023-03-03T04:21:50;99091.00;;;-1.68;85.02
73338;BME280;61575;49.908;35.556;2023-03-03T04:24:55;99093.41;;;-1.65;85.11
73338;BME280;61575;49.908;35.556;2023-03-03T04:27:56;99091.72;;;-1.66;85.08
73338;BME280;61575;49.908;35.556;2023-03-03T04:30:59;99078.13;;;-1.72;85.25
73338;BME280;61575;49.908;35.556;2023-03-03T04:34:04;99079.41;;;-1.65;85.71
73338;BME280;61575;49.908;35.556;2023-03-03T04:37:06;99076.88;;;-1.67;86.30
73338;BME280;61575;49.908;35.556;2023-03-03T04:40:09;99075.84;;;-1.64;86.27
73338;BME280;61575;49.908;35.556;2023-03-03T04:43:13;99069.72;;;-1.65;86.02
73338;BME280;61575;49.908;35.556;2023-03-03T04:46:15;99081.84;;;-1.62;85.89
73338;BME280;61575;49.908;35.556;2023-03-03T04:49:19;99074.69;;;-1.60;86.34
73338;BME280;61575;49.908;35.556;2023-03-03T04:52:22;99074.16;;;-1.53;87.12
73338;BME280;61575;49.908;35.556;2023-03-03T04:55:24;99074.56;;;-1.33;86.99
73338;BME280;61575;49.908;35.556;2023-03-03T04:58:25;99074.47;;;-1.19;86.37
73338;BME280;61575;49.908;35.556;2023-03-03T05:01:29;99066.13;;;-1.13;85.54
73338;BME280;61575;49.908;35.556;2023-03-03T05:04:32;99067.56;;;-1.09;85.38
73338;BME280;61575;49.908;35.556;2023-03-03T05:07:34;99061.25;;;-1.06;86.85
73338;BME280;61575;49.908;35.556;2023-03-03T05:10:36;99051.72;;;-0.96;86.09
73338;BME280;61575;49.908;35.556;2023-03-03T05:13:38;99059.63;;;-0.96;86.90
73338;BME280;61575;49.908;35.556;2023-03-03T05:16:40;99064.94;;;-1.09;88.53
73338;BME280;61575;49.908;35.556;2023-03-03T05:19:42;99064.91;;;-0.96;87.85
73338;BME280;61575;49.908;35.556;2023-03-03T05:22:47;99064.16;;;-0.86;87.67
73338;BME280;61575;49.908;35.556;2023-03-03T05:25:49;99071.28;;;-0.75;87.55
73338;BME280;61575;49.908;35.556;2023-03-03T05:28:54;99060.72;;;-0.62;87.04
73338;BME280;61575;49.908;35.556;2023-03-03T05:31:56;99069.03;;;-0.56;86.98
73338;BME280;61575;49.908;35.556;2023-03-03T05:34:58;99066.16;;;-0.53;86.90
73338;BME280;61575;49.908;35.556;2023-03-03T05:38:00;99067.84;;;-0.52;87.25
73338;BME280;61575;49.908;35.556;2023-03-03T05:41:06;99064.19;;;-0.38;87.15
73338;BME280;61575;49.908;35.556;2023-03-03T05:44:10;99060.88;;;-0.29;86.88
73338;BME280;61575;49.908;35.556;2023-03-03T05:47:12;99072.34;;;-0.17;86.70
73338;BME280;61575;49.908;35.556;2023-03-03T05:50:15;99068.91;;;-0.06;86.57
73338;BME280;61575;49.908;35.556;2023-03-03T05:53:17;99062.94;;;0.03;86.60
73338;BME280;61575;49.908;35.556;2023-03-03T05:56:19;99066.69;;;0.11;86.39
73338;BME280;61575;49.908;35.556;2023-03-03T05:59:22;99062.28;;;0.23;86.38
73338;BME280;61575;49.908;35.556;2023-03-03T06:02:24;99063.03;;;0.36;85.98
73338;BME280;61575;49.908;35.556;2023-03-03T06:05:26;99062.34;;;0.45;85.83
73338;BME280;61575;49.908;35.556;2023-03-03T06:08:28;99061.88;;;0.51;85.32
73338;BME280;61575;49.908;35.556;2023-03-03T06:11:35;99073.91;;;0.67;85.20
73338;BME280;61575;49.908;35.556;2023-03-03T06:14:38;99068.75;;;0.76;85.00
73338;BME280;61575;49.908;35.556;2023-03-03T06:17:40;99072.00;;;0.91;84.87
73338;BME280;61575;49.908;35.556;2023-03-03T06:20:42;99070.91;;;1.16;84.18
73338;BME280;61575;49.908;35.556;2023-03-03T06:23:44;99075.56;;;1.35;84.34
73338;BME280;61575;49.908;35.556;2023-03-03T06:26:48;99073.75;;;1.46;83.24
73338;BME280;61575;49.908;35.556;2023-03-03T06:29:50;99081.13;;;1.75;82.77
73338;BME280;61575;49.908;35.556;2023-03-03T06:32:52;99078.59;;;1.85;82.48
73338;BME280;61575;49.908;35.556;2023-03-03T06:35:54;99070.06;;;1.81;81.81
73338;BME280;61575;49.908;35.556;2023-03-03T06:38:56;99071.84;;;1.80;81.73
73338;BME280;61575;49.908;35.556;2023-03-03T06:41:58;99068.78;;;1.64;81.87
73338;BME280;61575;49.908;35.556;2023-03-03T06:45:00;99077.06;;;1.71;81.72
73338;BME280;61575;49.908;35.556;2023-03-03T06:48:02;99071.09;;;1.90;82.03
73338;BME280;61575;49.908;35.556;2023-03-03T06:51:22;99066.97;;;1.65;81.66
73338;BME280;61575;49.908;35.556;2023-03-03T06:54:28;99067.31;;;1.71;81.62
73338;BME280;61575;49.908;35.556;2023-03-03T06:57:32;99070.19;;;1.79;82.11
73338;BME280;61575;49.908;35.556;2023-03-03T07:00:35;99070.19;;;1.79;81.54
73338;BME280;61575;49.908;35.556;2023-03-03T07:03:39;99070.34;;;1.67;81.88
73338;BME280;61575;49.908;35.556;2023-03-03T07:06:43;99061.25;;;1.80;81.51
73338;BME280;61575;49.908;35.556;2023-03-03T07:09:48;99057.78;;;1.80;81.56
73338;BME280;61575;49.908;35.556;2023-03-03T07:12:53;99053.16;;;1.93;81.52
73338;BME280;61575;49.908;35.556;2023-03-03T07:16:02;99050.75;;;1.90;81.35
73338;BME280;61575;49.908;35.556;2023-03-03T07:19:25;99052.78;;;1.98;81.28
73338;BME280;61575;49.908;35.556;2023-03-03T07:22:30;99047.75;;;2.15;81.13
73338;BME280;61575;49.908;35.556;2023-03-03T07:25:33;99044.00;;;2.18;80.56
73338;BME280;61575;49.908;35.556;2023-03-03T07:29:00;99043.69;;;2.32;80.53
73338;BME280;61575;49.908;35.556;2023-03-03T07:32:21;99043.03;;;2.40;80.16
73338;BME280;61575;49.908;35.556;2023-03-03T07:35:44;99046.09;;;2.35;79.97
73338;BME280;61575;49.908;35.556;2023-03-03T07:38:52;99039.28;;;2.42;79.97
73338;BME280;61575;49.908;35.556;2023-03-03T07:42:01;99036.44;;;2.55;79.60
73338;BME280;61575;49.908;35.556;2023-03-03T07:45:27;99042.31;;;2.59;78.72
73338;BME280;61575;49.908;35.556;2023-03-03T07:48:34;99039.41;;;2.62;79.08
73338;BME280;61575;49.908;35.556;2023-03-03T07:51:39;99032.16;;;2.64;78.46
73338;BME280;61575;49.908;35.556;2023-03-03T07:54:44;99033.53;;;2.58;78.24
73338;BME280;61575;49.908;35.556;2023-03-03T07:57:50;99017.81;;;2.66;77.78
73338;BME280;61575;49.908;35.556;2023-03-03T08:04:45;99015.78;;;2.79;77.99
73338;BME280;61575;49.908;35.556;2023-03-03T08:07:49;99014.56;;;2.93;77.48
73338;BME280;61575;49.908;35.556;2023-03-03T08:10:55;99011.38;;;2.99;77.37
73338;BME280;61575;49.908;35.556;2023-03-03T08:13:57;99004.53;;;2.97;77.09
73338;BME280;61575;49.908;35.556;2023-03-03T08:16:59;98998.41;;;3.06;76.81
73338;BME280;61575;49.908;35.556;2023-03-03T08:20:54;99008.06;;;3.07;76.40
73338;BME280;61575;49.908;35.556;2023-03-03T08:23:30;98997.75;;;3.13;76.19
73338;BME280;61575;49.908;35.556;2023-03-03T08:26:32;98986.16;;;3.15;76.55
73338;BME280;61575;49.908;35.556;2023-03-03T08:29:34;98993.16;;;3.16;76.17
73338;BME280;61575;49.908;35.556;2023-03-03T08:32:36;98986.34;;;3.32;76.08
73338;BME280;61575;49.908;35.556;2023-03-03T08:35:38;98994.59;;;3.49;75.71
73338;BME280;61575;49.908;35.556;2023-03-03T08:38:41;98985.53;;;3.61;75.18
73338;BME280;61575;49.908;35.556;2023-03-03T08:41:43;98991.13;;;3.67;74.59
73338;BME280;61575;49.908;35.556;2023-03-03T08:44:47;98994.59;;;3.58;74.63
73338;BME280;61575;49.908;35.556;2023-03-03T08:47:49;98977.72;;;3.59;74.07
73338;BME280;61575;49.908;35.556;2023-03-03T08:50:51;98985.81;;;3.67;74.10
73338;BME280;61575;49.908;35.556;2023-03-03T08:53:53;98979.09;;;3.63;73.56
73338;BME280;61575;49.908;35.556;2023-03-03T08:56:55;98979.25;;;3.52;73.16
73338;BME280;61575;49.908;35.556;2023-03-03T08:59:59;98981.75;;;3.63;73.27
73338;BME280;61575;49.908;35.556;2023-03-03T09:03:01;98983.56;;;3.63;73.35
73338;BME280;61575;49.908;35.556;2023-03-03T09:06:03;98983.44;;;3.74;73.36
73338;BME280;61575;49.908;35.556;2023-03-03T09:09:05;98983.72;;;3.71;73.43
73338;BME280;61575;49.908;35.556;2023-03-03T09:12:18;98979.94;;;3.73;72.58
73338;BME280;61575;49.908;35.556;2023-03-03T09:15:29;98975.06;;;3.88;73.22
73338;BME280;61575;49.908;35.556;2023-03-03T09:18:35;98968.34;;;3.94;72.99
73338;BME280;61575;49.908;35.556;2023-03-03T09:21:39;98969.03;;;3.96;73.07
73338;BME280;61575;49.908;35.556;2023-03-03T09:24:45;98951.53;;;4.03;72.82
73338;BME280;61575;49.908;35.556;2023-03-03T09:27:47;98958.94;;;4.09;72.32
73338;BME280;61575;49.908;35.556;2023-03-03T09:30:50;98960.16;;;4.15;72.70
73338;BME280;61575;49.908;35.556;2023-03-03T09:33:53;98952.03;;;4.26;72.45
73338;BME280;61575;49.908;35.556;2023-03-03T09:37:00;98948.78;;;4.32;71.75
73338;BME280;61575;49.908;35.556;2023-03-03T09:40:25;98938.25;;;4.50;71.54
73338;BME280;61575;49.908;35.556;2023-03-03T09:50:10;98937.41;;;4.49;70.75
73338;BME280;61575;49.908;35.556;2023-03-03T09:56:43;98939.13;;;4.40;71.48
73338;BME280;61575;49.908;35.556;2023-03-03T10:06:48;98927.59;;;4.50;71.21
73338;BME280;61575;49.908;35.556;2023-03-03T10:13:29;98920.34;;;4.42;70.94
73338;BME280;61575;49.908;35.556;2023-03-03T10:16:47;98916.53;;;4.54;70.68
73338;BME280;61575;49.908;35.556;2023-03-03T10:33:00;98885.03;;;4.59;69.77
73338;BME280;61575;49.908;35.556;2023-03-03T10:36:16;98884.44;;;4.65;69.79
73338;BME280;61575;49.908;35.556;2023-03-03T10:39:42;98889.69;;;4.75;70.01
73338;BME280;61575;49.908;35.556;2023-03-03T10:43:00;98880.47;;;4.79;70.19
73338;BME280;61575;49.908;35.556;2023-03-03T10:46:26;98882.41;;;4.77;69.14
73338;BME280;61575;49.908;35.556;2023-03-03T10:56:52;98868.69;;;4.17;68.03
73338;BME280;61575;49.908;35.556;2023-03-03T11:00:06;98864.44;;;4.34;68.58
73338;BME280;61575;49.908;35.556;2023-03-03T11:07:05;98861.22;;;4.03;67.97
73338;BME280;61575;49.908;35.556;2023-03-03T11:10:32;98860.31;;;4.12;68.57
73338;BME280;61575;49.908;35.556;2023-03-03T11:14:01;98851.91;;;4.17;68.30
73338;BME280;61575;49.908;35.556;2023-03-03T11:17:11;98851.69;;;4.10;68.53
73338;BME280;61575;49.908;35.556;2023-03-03T11:20:40;98851.19;;;4.24;68.76
73338;BME280;61575;49.908;35.556;2023-03-03T11:37:36;98823.81;;;4.14;69.06
73338;BME280;61575;49.908;35.556;2023-03-03T11:40:48;98826.75;;;4.11;68.99
73338;BME280;61575;49.908;35.556;2023-03-03T11:43:58;98816.91;;;4.21;68.94
73338;BME280;61575;49.908;35.556;2023-03-03T11:47:21;98820.28;;;4.23;68.78
73338;BME280;61575;49.908;35.556;2023-03-03T11:56:46;98811.91;;;4.18;69.04
73338;BME280;61575;49.908;35.556;2023-03-03T12:02:57;98794.88;;;4.11;69.35
73338;BME280;61575;49.908;35.556;2023-03-03T12:20:02;98792.03;;;3.95;71.10
73338;BME280;61575;49.908;35.556;2023-03-03T12:37:01;98770.50;;;3.98;71.80
73338;BME280;61575;49.908;35.556;2023-03-03T12:40:13;98760.16;;;3.95;71.62
73338;BME280;61575;49.908;35.556;2023-03-03T12:53:41;98745.56;;;3.71;72.48
73338;BME280;61575;49.908;35.556;2023-03-03T12:56:51;98738.69;;;3.78;72.70
73338;BME280;61575;49.908;35.556;2023-03-03T13:03:44;98735.47;;;3.85;72.88
73338;BME280;61575;49.908;35.556;2023-03-03T13:10:29;98734.06;;;3.81;73.08
73338;BME280;61575;49.908;35.556;2023-03-03T13:17:35;98720.84;;;3.71;73.93
73338;BME280;61575;49.908;35.556;2023-03-03T13:20:36;98724.03;;;3.74;73.66
73338;BME280;61575;49.908;35.556;2023-03-03T13:27:13;98716.66;;;3.68;73.95
73338;BME280;61575;49.908;35.556;2023-03-03T13:30:22;98709.09;;;3.73;74.01
73338;BME280;61575;49.908;35.556;2023-03-03T13:33:28;98703.34;;;3.78;74.44
73338;BME280;61575;49.908;35.556;2023-03-03T13:36:41;98700.28;;;3.73;74.30
73338;BME280;61575;49.908;35.556;2023-03-03T13:40:03;98697.22;;;3.68;74.86
73338;BME280;61575;49.908;35.556;2023-03-03T13:59:54;98678.88;;;3.47;75.75
73338;BME280;61575;49.908;35.556;2023-03-03T14:03:11;98681.28;;;3.40;75.72
73338;BME280;61575;49.908;35.556;2023-03-03T14:06:22;98671.38;;;3.33;75.82
73338;BME280;61575;49.908;35.556;2023-03-03T14:09:58;98672.38;;;3.32;75.78
73338;BME280;61575;49.908;35.556;2023-03-03T14:13:07;98674.91;;;3.24;76.13
73338;BME280;61575;49.908;35.556;2023-03-03T14:19:43;98665.84;;;3.17;76.40
73338;BME280;61575;49.908;35.556;2023-03-03T14:22:57;98658.88;;;3.16;76.75
73338;BME280;61575;49.908;35.556;2023-03-03T14:32:25;98648.28;;;3.06;77.14
73338;BME280;61575;49.908;35.556;2023-03-03T14:36:00;98636.69;;;3.07;76.96
73338;BME280;61575;49.908;35.556;2023-03-03T14:39:31;98639.09;;;3.00;77.30
73338;BME280;61575;49.908;35.556;2023-03-03T14:42:39;98641.88;;;2.99;77.03
73338;BME280;61575;49.908;35.556;2023-03-03T14:45:49;98626.00;;;2.89;77.28
73338;BME280;61575;49.908;35.556;2023-03-03T14:48:53;98624.31;;;2.88;77.45
73338;BME280;61575;49.908;35.556;2023-03-03T14:52:34;98623.22;;;2.81;77.51
73338;BME280;61575;49.908;35.556;2023-03-03T14:55:40;98617.22;;;2.79;77.39
73338;BME280;61575;49.908;35.556;2023-03-03T14:58:42;98620.16;;;2.76;77.43
73338;BME280;61575;49.908;35.556;2023-03-03T15:01:45;98605.53;;;2.62;78.21
73338;BME280;61575;49.908;35.556;2023-03-03T15:04:48;98608.47;;;2.59;77.99
73338;BME280;61575;49.908;35.556;2023-03-03T15:14:27;98610.69;;;2.54;78.06
73338;BME280;61575;49.908;35.556;2023-03-03T15:17:43;98612.94;;;2.49;78.29
73338;BME280;61575;49.908;35.556;2023-03-03T15:21:09;98614.19;;;2.45;78.41
73338;BME280;61575;49.908;35.556;2023-03-03T15:24:40;98615.47;;;2.41;78.76
73338;BME280;61575;49.908;35.556;2023-03-03T15:27:50;98614.63;;;2.40;78.59
73338;BME280;61575;49.908;35.556;2023-03-03T15:37:58;98608.50;;;2.30;79.20
73338;BME280;61575;49.908;35.556;2023-03-03T15:41:07;98607.66;;;2.20;79.68
73338;BME280;61575;49.908;35.556;2023-03-03T15:51:07;98620.34;;;2.07;80.11
73338;BME280;61575;49.908;35.556;2023-03-03T16:01:00;98613.06;;;1.99;80.47
73338;BME280;61575;49.908;35.556;2023-03-03T16:04:15;98619.34;;;1.98;80.13
73338;BME280;61575;49.908;35.556;2023-03-03T16:13:45;98623.38;;;1.93;80.28
73338;BME280;61575;49.908;35.556;2023-03-03T16:17:11;98621.97;;;1.89;80.75
73338;BME280;61575;49.908;35.556;2023-03-03T16:23:42;98623.94;;;1.87;80.69
73338;BME280;61575;49.908;35.556;2023-03-03T16:27:01;98622.13;;;1.87;80.66
73338;BME280;61575;49.908;35.556;2023-03-03T16:34:19;98624.47;;;1.71;81.36
73338;BME280;61575;49.908;35.556;2023-03-03T16:37:38;98621.69;;;1.72;81.35
73338;BME280;61575;49.908;35.556;2023-03-03T17:00:50;98593.38;;;1.63;82.05
73338;BME280;61575;49.908;35.556;2023-03-03T17:04:00;98593.91;;;1.57;81.98
73338;BME280;61575;49.908;35.556;2023-03-03T17:10:28;98591.97;;;1.59;82.45
73338;BME280;61575;49.908;35.556;2023-03-03T17:13:49;98592.13;;;1.58;82.21
73338;BME280;61575;49.908;35.556;2023-03-03T17:16:57;98590.56;;;1.45;82.44
73338;BME280;61575;49.908;35.556;2023-03-03T17:23:50;98600.56;;;1.42;82.45
73338;BME280;61575;49.908;35.556;2023-03-03T17:27:25;98582.75;;;1.44;82.72
73338;BME280;61575;49.908;35.556;2023-03-03T17:34:38;98591.09;;;1.39;82.73
73338;BME280;61575;49.908;35.556;2023-03-03T17:41:29;98594.72;;;1.38;82.77
73338;BME280;61575;49.908;35.556;2023-03-03T17:54:13;98571.03;;;1.37;82.38
73338;BME280;61575;49.908;35.556;2023-03-03T17:57:27;98564.06;;;1.36;82.46
73338;BME280;61575;49.908;35.556;2023-03-03T18:03:57;98570.47;;;1.33;82.91
73338;BME280;61575;49.908;35.556;2023-03-03T18:07:15;98560.72;;;1.34;82.66
73338;BME280;61575;49.908;35.556;2023-03-03T18:11:06;98570.75;;;1.30;82.98
73338;BME280;61575;49.908;35.556;2023-03-03T18:17:47;98576.88;;;1.31;82.62
73338;BME280;61575;49.908;35.556;2023-03-03T18:21:01;98575.19;;;1.30;83.03
73338;BME280;61575;49.908;35.556;2023-03-03T18:31:00;98569.63;;;1.33;82.86
73338;BME280;61575;49.908;35.556;2023-03-03T18:34:09;98575.19;;;1.30;83.22
73338;BME280;61575;49.908;35.556;2023-03-03T18:40:33;98563.63;;;1.31;82.82
73338;BME280;61575;49.908;35.556;2023-03-03T18:46:47;98565.31;;;1.32;82.77
73338;BME280;61575;49.908;35.556;2023-03-03T18:49:54;98567.97;;;1.32;82.64
73338;BME280;61575;49.908;35.556;2023-03-03T19:00:08;98567.25;;;1.30;82.90
73338;BME280;61575;49.908;35.556;2023-03-03T19:10:00;98565.94;;;1.14;83.35
73338;BME280;61575;49.908;35.556;2023-03-03T19:16:35;98568.19;;;1.19;82.71
73338;BME280;61575;49.908;35.556;2023-03-03T19:20:01;98558.84;;;1.15;82.68
73338;BME280;61575;49.908;35.556;2023-03-03T19:23:14;98555.25;;;1.16;82.74
73338;BME280;61575;49.908;35.556;2023-03-03T19:33:22;98552.56;;;1.06;82.67
73338;BME280;61575;49.908;35.556;2023-03-03T19:37:11;98561.38;;;1.16;82.78
73338;BME280;61575;49.908;35.556;2023-03-03T19:40:27;98551.59;;;1.07;83.07
73338;BME280;61575;49.908;35.556;2023-03-03T19:53:11;98553.16;;;1.20;82.42
73338;BME280;61575;49.908;35.556;2023-03-03T19:56:52;98559.13;;;1.12;83.16
73338;BME280;61575;49.908;35.556;2023-03-03T20:00:03;98547.72;;;1.11;83.08
73338;BME280;61575;49.908;35.556;2023-03-03T20:16:49;98520.16;;;1.14;82.82
73338;BME280;61575;49.908;35.556;2023-03-03T20:27:01;98510.69;;;1.11;83.10
73338;BME280;61575;49.908;35.556;2023-03-03T20:46:52;98500.94;;;1.12;83.16
73338;BME280;61575;49.908;35.556;2023-03-03T20:59:37;98486.88;;;1.02;83.48
73338;BME280;61575;49.908;35.556;2023-03-03T21:06:07;98485.50;;;1.07;83.01
73338;BME280;61575;49.908;35.556;2023-03-03T21:09:28;98477.69;;;1.06;83.26
73338;BME280;61575;49.908;35.556;2023-03-03T21:12:30;98484.78;;;1.05;83.55
73338;BME280;61575;49.908;35.556;2023-03-03T21:15:32;98473.78;;;1.00;83.55
73338;BME280;61575;49.908;35.556;2023-03-03T21:18:36;98478.81;;;1.03;83.73
73338;BME280;61575;49.908;35.556;2023-03-03T21:21:41;98471.72;;;1.04;83.56
73338;BME280;61575;49.908;35.556;2023-03-03T21:24:54;98470.31;;;1.00;83.90
73338;BME280;61575;49.908;35.556;2023-03-03T21:28:18;98468.63;;;0.89;84.24
73338;BME280;61575;49.908;35.556;2023-03-03T21:31:20;98469.59;;;0.88;84.37
73338;BME280;61575;49.908;35.556;2023-03-03T21:37:51;98474.63;;;1.01;83.92
73338;BME280;61575;49.908;35.556;2023-03-03T21:41:00;98473.78;;;1.00;83.96
73338;BME280;61575;49.908;35.556;2023-03-03T21:44:29;98462.78;;;0.95;84.30
73338;BME280;61575;49.908;35.556;2023-03-03T21:47:31;98460.72;;;0.99;84.23
73338;BME280;61575;49.908;35.556;2023-03-03T21:50:33;98462.78;;;0.95;84.40
73338;BME280;61575;49.908;35.556;2023-03-03T21:53:36;98453.47;;;1.01;84.25
73338;BME280;61575;49.908;35.556;2023-03-03T21:56:38;98455.69;;;0.96;84.42
73338;BME280;61575;49.908;35.556;2023-03-03T21:59:42;98456.25;;;0.99;84.26
73338;BME280;61575;49.908;35.556;2023-03-03T22:02:44;98451.25;;;0.96;84.29
73338;BME280;61575;49.908;35.556;2023-03-03T22:05:49;98455.56;;;0.97;84.67
73338;BME280;61575;49.908;35.556;2023-03-03T22:08:50;98454.44;;;1.00;84.38
73338;BME280;61575;49.908;35.556;2023-03-03T22:11:52;98451.66;;;1.01;84.33
73338;BME280;61575;49.908;35.556;2023-03-03T22:14:57;98451.41;;;1.04;84.31
73338;BME280;61575;49.908;35.556;2023-03-03T22:17:59;98447.34;;;1.00;84.58
73338;BME280;61575;49.908;35.556;2023-03-03T22:21:01;98448.19;;;1.01;84.51
73338;BME280;61575;49.908;35.556;2023-03-03T22:24:09;98454.59;;;1.08;84.58
73338;BME280;61575;49.908;35.556;2023-03-03T22:27:11;98447.91;;;1.04;84.74